Terminal Aerodrome Forecast
Issued by NWS El Paso, TX

Home | Current Version | Previous Version | Text Only | Print | Product List | Glossary On
Versions: 1 2 3 4 5 6 7 8 9 10 11
000
FTUS44 KEPZ 031700
TAFELP
TAF
KELP 031732Z 0318/0418 22005KT P6SM FEW100
     FM032000 24010KT P6SM SCT100
     FM040000 25008KT P6SM VCTS BKN100CB
     FM040400 26006KT P6SM SCT080=

USA.gov is the U.S. government's official web portal to all federal, state and local government web resources and services.